createdAt,value
2022-09-03T00:03:21.890Z,99.90
2022-09-03T00:08:33.547Z,99.90
2022-09-03T00:13:41.324Z,99.90
2022-09-03T00:18:48.717Z,99.90
2022-09-03T00:23:54.312Z,99.90
2022-09-03T00:29:04.454Z,99.90
2022-09-03T00:34:15.510Z,99.90
2022-09-03T00:39:22.902Z,99.90
2022-09-03T00:44:50.136Z,99.90
2022-09-03T00:50:05.498Z,99.90
2022-09-03T00:55:20.842Z,99.90
2022-09-03T01:00:24.768Z,99.90
2022-09-03T01:06:01.701Z,99.90
2022-09-03T01:11:20.149Z,99.90
2022-09-03T01:16:29.297Z,99.90
2022-09-03T01:21:58.805Z,99.90
2022-09-03T01:27:20.694Z,99.90
2022-09-03T01:32:32.409Z,99.90
2022-09-03T01:37:47.575Z,99.90
2022-09-03T01:43:03.530Z,99.90
2022-09-03T01:48:20.527Z,99.90
2022-09-03T01:53:36.988Z,99.90
2022-09-03T01:58:44.375Z,99.90
2022-09-03T02:03:50.074Z,99.90
2022-09-03T02:08:53.484Z,99.90
2022-09-03T02:14:00.006Z,99.90
2022-09-03T02:19:07.165Z,99.90
2022-09-03T02:24:10.571Z,99.90
2022-09-03T02:29:14.862Z,99.90
2022-09-03T02:34:19.588Z,99.90
2022-09-03T02:39:22.962Z,99.90
2022-09-03T02:44:31.735Z,99.90
2022-09-03T02:49:36.746Z,99.90
2022-09-03T02:54:40.882Z,99.90
2022-09-03T02:59:45.823Z,99.90
2022-09-03T03:04:50.993Z,99.90
2022-09-03T03:09:54.385Z,99.90
2022-09-03T03:14:57.749Z,99.90
2022-09-03T03:20:02.527Z,99.90
2022-09-03T03:25:06.646Z,99.90
2022-09-03T03:30:11.074Z,99.90
2022-09-03T03:35:15.875Z,99.90
2022-09-03T03:40:20.329Z,99.90
2022-09-03T03:45:23.658Z,99.90
2022-09-03T03:50:29.171Z,99.90
2022-09-03T03:55:35.279Z,99.90
2022-09-03T04:00:39.537Z,99.90
2022-09-03T04:05:48.460Z,99.90
2022-09-03T04:10:52.118Z,99.90
2022-09-03T04:16:02.009Z,99.90
2022-09-03T04:21:09.322Z,99.90
2022-09-03T04:26:14.787Z,99.90
2022-09-03T04:31:19.548Z,99.90
2022-09-03T04:36:26.226Z,99.90
2022-09-03T04:41:31.305Z,99.90
2022-09-03T04:46:34.608Z,99.90
2022-09-03T04:51:39.386Z,99.90
2022-09-03T04:56:43.355Z,99.90
2022-09-03T05:01:46.773Z,99.90
2022-09-03T05:06:51.490Z,99.90
2022-09-03T05:11:55.246Z,99.90
2022-09-03T05:16:58.557Z,99.90
2022-09-03T05:22:03.393Z,99.90
2022-09-03T05:27:06.782Z,99.90
2022-09-03T05:32:10.092Z,99.90
2022-09-03T05:37:14.764Z,99.90
2022-09-03T05:42:18.084Z,99.90
2022-09-03T05:47:21.631Z,99.90
2022-09-03T05:52:26.351Z,99.90
2022-09-03T05:57:29.773Z,99.90
2022-09-03T06:02:33.606Z,99.90
2022-09-03T06:07:38.398Z,99.90
2022-09-03T06:12:41.733Z,99.90
2022-09-03T06:17:45.111Z,99.90
2022-09-03T06:22:53.633Z,99.90
2022-09-03T06:27:56.966Z,99.90
2022-09-03T06:33:00.305Z,99.90
2022-09-03T06:38:05.079Z,99.90
2022-09-03T06:43:08.427Z,99.90
2022-09-03T06:48:11.736Z,99.90
2022-09-03T06:53:16.462Z,99.90
2022-09-03T06:58:19.824Z,99.90
2022-09-03T07:03:23.138Z,99.90
2022-09-03T07:08:27.856Z,99.90
2022-09-03T07:13:31.213Z,99.90
2022-09-03T07:18:35.293Z,99.90
2022-09-03T07:23:41.283Z,99.90
2022-09-03T07:28:46.650Z,99.30
2022-09-03T07:33:49.973Z,91.40
2022-09-03T07:38:57.336Z,85.20
2022-09-03T07:44:05.599Z,90.70
2022-09-03T07:49:09.619Z,94.00
2022-09-03T07:54:14.573Z,93.90
2022-09-03T07:59:18.238Z,94.20
2022-09-03T08:04:22.212Z,91.10
2022-09-03T08:09:27.307Z,90.60
2022-09-03T08:14:31.813Z,79.90
2022-09-03T08:19:35.166Z,78.40
2022-09-03T08:24:39.920Z,80.60
2022-09-03T08:29:43.298Z,81.50
2022-09-03T08:34:46.975Z,79.90
2022-09-03T08:39:51.857Z,79.10
2022-09-03T08:44:58.714Z,78.10
2022-09-03T08:50:06.239Z,75.70
2022-09-03T08:55:25.253Z,78.60
2022-09-03T09:00:38.940Z,76.70
2022-09-03T09:05:51.310Z,73.50
2022-09-03T09:11:09.027Z,77.80
2022-09-03T09:16:16.881Z,76.30
2022-09-03T09:21:27.710Z,75.60
2022-09-03T09:26:33.245Z,71.60
2022-09-03T09:31:36.706Z,74.80
2022-09-03T09:36:44.899Z,68.30
2022-09-03T09:42:00.634Z,68.90
2022-09-03T09:47:07.751Z,69.60
2022-09-03T09:52:13.125Z,68.70
2022-09-03T09:57:19.470Z,69.10
2022-09-03T10:02:28.890Z,69.90
2022-09-03T10:07:33.444Z,69.90
2022-09-03T10:12:44.492Z,61.20
2022-09-03T10:17:58.698Z,64.40
2022-09-03T10:23:11.172Z,62.90
2022-09-03T10:28:15.946Z,58.80
2022-09-03T10:33:27.744Z,59.70
2022-09-03T10:38:36.767Z,54.60
2022-09-03T10:43:58.289Z,52.60
2022-09-03T10:49:16.014Z,55.10
2022-09-03T10:54:39.788Z,57.00
2022-09-03T10:59:59.244Z,58.20
2022-09-03T11:05:06.301Z,56.70
2022-09-03T11:10:17.109Z,61.00
2022-09-03T11:15:28.027Z,64.40
2022-09-03T11:20:35.996Z,65.70
2022-09-03T11:25:45.379Z,59.70
2022-09-03T11:31:06.186Z,62.70
2022-09-03T11:36:09.632Z,59.70
2022-09-03T11:41:15.912Z,62.00
2022-09-03T11:46:32.084Z,61.50
2022-09-03T11:51:37.957Z,63.40
2022-09-03T11:56:43.405Z,65.70
2022-09-03T12:01:54.498Z,62.30
2022-09-03T12:07:10.058Z,55.90
2022-09-03T12:12:28.979Z,54.90
2022-09-03T12:17:43.197Z,58.30
2022-09-03T12:22:47.622Z,57.90
2022-09-03T12:27:51.526Z,62.30
2022-09-03T12:33:06.475Z,62.90
2022-09-03T12:38:12.034Z,65.40
2022-09-03T12:54:18.630Z,70.50
2022-09-03T12:59:25.067Z,66.80
2022-09-03T13:04:34.198Z,71.90
2022-09-03T13:09:41.132Z,72.80
2022-09-03T13:14:47.370Z,72.70
2022-09-03T13:20:23.861Z,72.30
2022-09-03T13:25:35.987Z,72.90
2022-09-03T13:30:54.224Z,73.40
2022-09-03T13:36:05.770Z,73.10
2022-09-03T13:41:15.536Z,73.90
2022-09-03T13:46:25.689Z,74.50
2022-09-03T13:51:33.581Z,75.10
2022-09-03T13:56:56.348Z,76.70
2022-09-03T14:02:16.018Z,76.80
2022-09-03T14:07:26.761Z,77.50
2022-09-03T14:12:42.668Z,76.50
2022-09-03T14:17:53.579Z,75.90
2022-09-03T14:23:09.161Z,75.20
2022-09-03T14:28:20.831Z,76.70
2022-09-03T14:33:29.553Z,76.40
2022-09-03T14:38:44.963Z,76.90
2022-09-03T14:44:10.798Z,76.40
2022-09-03T14:49:44.225Z,76.60
2022-09-03T14:55:16.083Z,74.90
2022-09-03T15:00:22.550Z,76.00
2022-09-03T15:05:48.425Z,78.50
2022-09-03T15:10:59.348Z,77.50
2022-09-03T15:16:19.930Z,76.60
2022-09-03T15:21:32.404Z,77.40
2022-09-03T15:26:56.733Z,77.30
2022-09-03T15:32:08.133Z,80.20
2022-09-03T15:37:18.212Z,78.50
2022-09-03T15:42:29.352Z,81.50
2022-09-03T15:47:54.499Z,74.10
2022-09-03T15:53:03.846Z,71.00
2022-09-03T15:58:20.890Z,64.30
2022-09-03T16:22:50.102Z,77.60
2022-09-03T17:19:07.854Z,89.20
2022-09-03T17:24:33.584Z,91.80
2022-09-03T17:29:53.869Z,93.90
2022-09-03T17:35:10.412Z,96.40
2022-09-03T17:40:32.088Z,98.50
2022-09-03T17:45:45.038Z,99.90
2022-09-03T17:50:55.392Z,99.90
2022-09-03T17:56:02.620Z,99.90
2022-09-03T18:01:16.809Z,99.90
2022-09-03T18:06:31.909Z,99.90
2022-09-03T18:11:39.456Z,99.90
2022-09-03T18:16:49.297Z,99.90
2022-09-03T18:22:11.587Z,99.90
2022-09-03T18:27:37.157Z,99.90
2022-09-03T18:32:57.718Z,99.90
2022-09-03T18:38:21.819Z,99.90
2022-09-03T18:43:54.086Z,99.90
2022-09-03T18:49:21.353Z,99.90
2022-09-03T18:55:07.920Z,99.90
2022-09-03T19:00:32.362Z,99.90
2022-09-03T19:06:03.168Z,99.90
2022-09-03T19:11:36.214Z,99.90
2022-09-03T19:17:04.920Z,99.90
2022-09-03T19:22:28.193Z,99.90
2022-09-03T19:27:59.696Z,99.90
2022-09-03T19:33:29.801Z,99.90
2022-09-03T19:39:10.861Z,99.90
2022-09-03T19:44:50.635Z,99.90
2022-09-03T19:50:22.059Z,99.90
2022-09-03T19:55:46.037Z,99.90
2022-09-03T20:01:08.669Z,99.90
2022-09-03T20:06:30.479Z,99.90
2022-09-03T20:11:33.783Z,99.90
2022-09-03T20:16:45.549Z,99.90
2022-09-03T20:21:56.221Z,99.90
2022-09-03T20:27:12.241Z,99.90
2022-09-03T20:32:26.349Z,99.90
2022-09-03T20:37:38.413Z,99.90
2022-09-03T20:42:55.886Z,99.90
2022-09-03T20:48:11.006Z,99.90
2022-09-03T20:53:49.871Z,99.90
2022-09-03T20:59:01.259Z,99.90
2022-09-03T21:04:18.413Z,99.90
2022-09-03T21:09:31.892Z,99.90
2022-09-03T21:14:39.629Z,99.90
2022-09-03T21:19:58.290Z,99.90
2022-09-03T21:25:05.821Z,99.90
2022-09-03T21:30:11.198Z,99.90
2022-09-03T21:35:22.250Z,99.90
2022-09-03T21:40:32.453Z,99.90
2022-09-03T21:45:41.542Z,99.90
2022-09-03T21:50:52.313Z,99.90
2022-09-03T21:56:25.130Z,99.90
2022-09-03T22:01:36.996Z,99.90
2022-09-03T22:06:49.139Z,99.90
2022-09-03T22:11:59.267Z,99.90
2022-09-03T22:17:10.102Z,99.90
2022-09-03T22:22:20.667Z,99.90
2022-09-03T22:27:32.579Z,99.90
2022-09-03T22:32:52.248Z,99.90
2022-09-03T22:38:06.474Z,99.90
2022-09-03T22:43:27.984Z,99.90
2022-09-03T22:48:44.581Z,99.90
2022-09-03T22:54:07.046Z,99.90
2022-09-03T22:59:16.834Z,99.90
2022-09-03T23:04:26.626Z,99.90
2022-09-03T23:09:37.544Z,99.90
2022-09-03T23:14:48.845Z,99.90
2022-09-03T23:19:58.099Z,99.90
2022-09-03T23:25:07.488Z,99.90
2022-09-03T23:30:11.813Z,99.90
2022-09-03T23:35:18.228Z,99.90
2022-09-03T23:40:34.599Z,99.90
2022-09-03T23:45:46.072Z,99.90
2022-09-03T23:50:57.875Z,99.90
2022-09-03T23:56:12.567Z,99.90
